Flugplatz Munich International

Bericht für EDDM

vom 18.09. um 10:50 UTC

variable Windrichtung mit 2 kt

Sichtweite 10 km oder mehr

gering bewölkt in 3200 ft

Temperatur 18.0°C

Taupunkt 10.0°C

Luftfeuchtigkeit 59%

Luftdruck 1017 hPa

keine wesentliche Wetteränderung innerhalb den nächsten 2 Stunden zu erwarten

EDDM 181050Z VRB02KT 9999 FEW032 18/10 Q1017 NOSIG

Prognose für EDDM

vom 18.09. um 05:00 UTC

Zwischen 06:00 UTC und 07:00 UTC

variable Windrichtung mit 3 kt

Sichtweite 10 km oder mehr

gering bewölkt in 3500 ft


Am 19.09. zwischen 00:00 UTC und 07:00 UTC zeitweise

Sichtweite 400 m

Nebel

bedeckt in 100 ft


Am 19.09. zwischen 07:00 und 09:00 UTC übergehend zu

Wind 8 kt aus 70°

Sichtweite 10 km oder mehr

gering bewölkt in 3500 ft

TAF EDDM 180500Z 1806/1912 VRB03KT 9999 FEW035 TEMPO 1900/1907 0400 FG OVC001 BECMG 1907/1909 07008KT
Impressum